Jarrell, Texas
Current Conditions -  °F | °C
As of 2:35 AM on Saturday 01 Nov 2014 (Local Time) from KGTU Reporting Station
Clear Clear  
Wind Chill: 46°   Ceiling: Unl
Heat Index: 46°   Visibility: 10mi
Dew Point: 37°   Wind: 0mph
Humidity: 71%   Direction: NA
Pressure: 30.34"   Gusts: NA
Location:  30.82°N, 97.6°W
Report Text: KGTU 010735Z 00000KT 10SM CLR 08/03 A3034 RMK AO1
Loading
Personal Weather Stations






























Interactive Weather Map New forecast layout! Learn more

10-Day Weather Forecast

Advertisements
Track Severe Weather on mobile